Time;durP1;ratioP1;P1;durP2;ratioP2;P2;SDS_P1;SDS_P2;PMS_P1;PMS_P2;Temp;Humidity;BMP_temperature;BMP_pressure;BME280_temperature;BME280_humidity;BME280_pressure;Samples;Min_cycle;Max_cycle;Signal;HPM_P1;HPM_P2
2023/12/29 00:00:23;;;;;;;1.30;1.20;;;;;;;10.86;62.58;95280.81;5006973;28;20215;-87
2023/12/29 00:02:50;;;;;;;2.40;1.50;;;;;;;10.81;62.92;95286.53;5006747;28;20198;-87
2023/12/29 00:05:16;;;;;;;1.30;1.20;;;;;;;10.73;63.30;95297.75;5007926;28;20287;-87
2023/12/29 00:07:43;;;;;;;1.43;1.33;;;;;;;10.70;63.77;95315.34;5007976;28;20225;-87
2023/12/29 00:10:13;;;;;;;2.37;1.50;;;;;;;10.69;64.08;95329.22;5008123;28;20207;-87
2023/12/29 00:12:39;;;;;;;1.40;1.30;;;;;;;10.70;63.91;95323.06;5008766;28;20327;-87
2023/12/29 00:15:08;;;;;;;2.63;1.50;;;;;;;10.68;64.44;95336.13;5008036;28;20216;-87
2023/12/29 00:17:37;;;;;;;1.67;1.20;;;;;;;10.66;64.73;95342.44;5009920;28;20218;-87
2023/12/29 00:20:04;;;;;;;1.30;1.20;;;;;;;10.69;64.62;95340.31;5010506;28;20253;-87
2023/12/29 00:22:33;;;;;;;1.47;1.23;;;;;;;10.75;64.57;95325.09;5012086;28;20198;-87
2023/12/29 00:25:00;;;;;;;1.47;1.23;;;;;;;10.74;64.63;95324.31;5011526;28;20278;-87
2023/12/29 00:27:27;;;;;;;2.00;1.30;;;;;;;10.79;64.24;95313.44;5011725;28;20214;-87
2023/12/29 00:29:54;;;;;;;1.30;1.20;;;;;;;10.77;64.30;95318.00;5010888;28;20213;-87
2023/12/29 00:32:23;;;;;;;1.20;1.10;;;;;;;10.73;64.26;95304.69;5011885;28;20302;-87
2023/12/29 00:34:49;;;;;;;1.87;1.23;;;;;;;10.72;64.09;95306.47;5009215;28;20225;-86
2023/12/29 00:37:15;;;;;;;1.40;1.30;;;;;;;10.70;63.98;95285.25;5011368;28;20234;-87
2023/12/29 00:39:48;;;;;;;1.50;1.30;;;;;;;10.67;64.20;95288.19;5011022;28;20210;-87
2023/12/29 00:42:14;;;;;;;2.20;1.47;;;;;;;10.63;63.87;95286.97;5011618;28;20187;-87
2023/12/29 00:44:41;;;;;;;1.67;1.37;;;;;;;10.57;64.26;95281.75;5011110;28;20201;-87
2023/12/29 00:47:08;;;;;;;1.40;1.30;;;;;;;10.52;64.23;95284.88;5011639;28;20226;-87
2023/12/29 00:49:39;;;;;;;1.20;1.10;;;;;;;10.47;64.57;95281.25;5009903;28;20206;-87
2023/12/29 00:52:11;;;;;;;1.87;1.40;;;;;;;10.48;64.02;95263.06;5011221;28;20227;-87
2023/12/29 00:54:37;;;;;;;2.03;1.13;;;;;;;10.42;64.01;95271.50;5011325;28;20574;-87
2023/12/29 00:57:04;;;;;;;1.30;1.20;;;;;;;10.42;63.98;95261.22;5010659;28;20219;-87
2023/12/29 00:59:30;;;;;;;2.07;1.50;;;;;;;10.44;64.02;95259.25;5010988;28;20195;-87
2023/12/29 01:01:57;;;;;;;1.47;1.37;;;;;;;10.38;64.18;95260.81;5011487;28;20207;-87
2023/12/29 01:04:23;;;;;;;2.60;1.50;;;;;;;10.38;64.03;95260.00;5011355;28;20203;-87
2023/12/29 01:07:00;;;;;;;1.50;1.40;;;;;;;10.34;64.31;95261.34;5010595;28;20233;-86
2023/12/29 01:09:27;;;;;;;1.40;1.30;;;;;;;10.25;64.56;95268.38;5012138;28;20244;-87
2023/12/29 01:11:54;;;;;;;1.47;1.37;;;;;;;10.35;64.35;95260.38;5012081;28;20206;-87
2023/12/29 01:14:20;;;;;;;2.17;1.30;;;;;;;10.37;63.98;95251.50;5011211;28;20633;-87
2023/12/29 01:16:47;;;;;;;1.77;1.50;;;;;;;10.36;63.81;95260.19;5010674;28;20849;-87
2023/12/29 01:19:13;;;;;;;1.70;1.37;;;;;;;10.35;64.03;95265.50;5010107;28;20195;-87
2023/12/29 01:21:39;;;;;;;1.93;1.60;;;;;;;10.41;63.81;95257.03;5009312;28;20676;-88
2023/12/29 01:24:07;;;;;;;1.30;1.20;;;;;;;10.41;63.82;95259.63;5010614;28;20824;-87
2023/12/29 01:26:37;;;;;;;1.90;1.70;;;;;;;10.38;63.55;95260.00;5009946;28;20253;-87
2023/12/29 01:29:04;;;;;;;1.60;1.30;;;;;;;10.38;63.60;95249.72;5009474;28;20206;-87
2023/12/29 01:31:30;;;;;;;1.53;1.30;;;;;;;10.35;63.39;95247.50;5009973;28;20199;-87
2023/12/29 01:33:57;;;;;;;1.73;1.63;;;;;;;10.41;62.81;95226.16;5010426;28;20272;-86
2023/12/29 01:36:24;;;;;;;1.50;1.40;;;;;;;10.42;62.78;95225.19;5010204;28;20209;-86
2023/12/29 01:38:50;;;;;;;1.73;1.40;;;;;;;10.42;62.67;95216.66;5009493;28;20203;-87
2023/12/29 01:41:20;;;;;;;3.27;1.40;;;;;;;10.28;62.69;95224.25;5009452;28;20217;-86
2023/12/29 01:44:21;;;;;;;1.40;1.30;;;;;;;10.29;63.03;95207.06;5010244;28;20214;-86
2023/12/29 01:46:50;;;;;;;1.70;1.50;;;;;;;10.28;62.27;95190.81;5009898;28;20226;-86
2023/12/29 01:49:18;;;;;;;1.60;1.50;;;;;;;10.26;62.48;95182.47;5009719;28;20703;-86
2023/12/29 01:51:45;;;;;;;1.63;1.50;;;;;;;10.28;61.98;95167.66;5010403;28;20270;-86
2023/12/29 01:54:13;;;;;;;2.17;1.60;;;;;;;10.31;61.75;95157.00;5008456;28;20233;-86
2023/12/29 01:56:44;;;;;;;1.50;1.40;;;;;;;10.32;61.56;95137.22;5009539;28;20203;-86
2023/12/29 01:59:14;;;;;;;1.83;1.43;;;;;;;10.36;61.27;95125.56;5009956;28;20226;-86
2023/12/29 02:01:41;;;;;;;2.00;1.80;;;;;;;10.36;61.23;95110.94;5009872;28;20221;-87
2023/12/29 02:04:10;;;;;;;1.70;1.60;;;;;;;10.36;60.55;95097.28;5010396;28;20209;-86
2023/12/29 02:06:38;;;;;;;1.57;1.47;;;;;;;10.35;60.52;95077.66;5009084;28;20199;-86
2023/12/29 02:09:05;;;;;;;1.80;1.47;;;;;;;10.35;60.46;95078.47;5010113;28;20600;-86
2023/12/29 02:11:32;;;;;;;1.43;1.33;;;;;;;10.41;60.16;95055.50;5008344;28;20210;-85
2023/12/29 02:14:00;;;;;;;1.67;1.57;;;;;;;10.42;59.60;95042.47;5010968;28;20229;-86
2023/12/29 02:16:41;;;;;;;2.57;1.73;;;;;;;10.35;59.65;95028.78;5022799;28;20199;-86
2023/12/29 02:19:21;;;;;;;1.90;1.70;;;;;;;10.31;59.38;95014.69;5026017;28;20183;-86
2023/12/29 02:21:48;;;;;;;2.20;1.77;;;;;;;10.30;59.31;95010.53;5023753;28;20213;-85
2023/12/29 02:24:16;;;;;;;2.60;1.53;;;;;;;10.23;59.22;95009.69;5024595;28;20199;-86
2023/12/29 02:26:48;;;;;;;1.73;1.63;;;;;;;10.21;59.46;95006.50;5021202;28;20199;-86
2023/12/29 02:29:17;;;;;;;2.20;1.50;;;;;;;10.22;59.26;94997.78;5023165;28;20214;-85
2023/12/29 02:31:49;;;;;;;2.17;1.70;;;;;;;10.14;59.13;94997.94;5028886;28;20207;-86
2023/12/29 02:34:19;;;;;;;1.70;1.50;;;;;;;10.18;58.95;94991.44;5031010;28;20213;-86
2023/12/29 02:36:45;;;;;;;2.70;1.60;;;;;;;10.19;58.83;94975.03;5016464;28;20218;-86
2023/12/29 02:39:12;;;;;;;4.27;1.70;;;;;;;10.19;58.52;94962.97;5011928;28;20206;-85
2023/12/29 02:41:39;;;;;;;2.53;1.53;;;;;;;10.19;58.25;94944.19;5011625;28;20191;-86
2023/12/29 02:44:07;;;;;;;1.70;1.60;;;;;;;10.21;58.21;94929.31;5010822;28;20203;-87
2023/12/29 02:46:33;;;;;;;1.60;1.50;;;;;;;10.23;58.17;94923.00;5010367;28;20199;-86
2023/12/29 02:49:02;;;;;;;1.73;1.50;;;;;;;10.19;57.97;94918.44;5010740;28;20195;-87
2023/12/29 02:51:29;;;;;;;1.50;1.40;;;;;;;10.20;57.97;94905.38;5010651;28;20203;-86
2023/12/29 02:53:55;;;;;;;1.60;1.40;;;;;;;10.22;57.49;94890.53;5011513;28;20310;-86
2023/12/29 02:56:22;;;;;;;2.23;1.73;;;;;;;10.26;57.52;94878.91;5010036;28;20210;-86
2023/12/29 02:58:49;;;;;;;1.87;1.70;;;;;;;10.33;56.97;94868.63;5008623;28;20226;-85
2023/12/29 03:01:16;;;;;;;1.90;1.70;;;;;;;10.35;56.94;94869.25;5009587;28;20195;-86
2023/12/29 03:03:43;;;;;;;4.37;1.80;;;;;;;10.40;56.88;94859.16;5009841;28;20203;-85
2023/12/29 03:06:10;;;;;;;1.67;1.50;;;;;;;10.36;56.56;94834.81;5009978;28;20672;-86
2023/12/29 03:08:36;;;;;;;1.70;1.60;;;;;;;10.41;56.64;94832.44;5009199;28;20218;-86
2023/12/29 03:11:03;;;;;;;1.50;1.40;;;;;;;10.41;56.30;94819.56;5009280;28;20207;-87
2023/12/29 03:13:29;;;;;;;1.60;1.50;;;;;;;10.43;56.31;94801.34;5009416;28;20219;-86
2023/12/29 03:15:55;;;;;;;2.47;1.83;;;;;;;10.46;56.10;94793.25;5008236;28;20199;-87
2023/12/29 03:18:23;;;;;;;2.73;2.00;;;;;;;10.42;57.25;94856.38;5010090;28;20223;-87
2023/12/29 03:20:51;;;;;;;2.07;1.73;;;;;;;10.43;56.91;94855.41;5009700;28;20206;-86
2023/12/29 03:23:18;;;;;;;1.90;1.60;;;;;;;10.45;56.42;94812.25;5009783;28;20198;-86
2023/12/29 03:25:44;;;;;;;2.00;1.80;;;;;;;10.42;56.06;94807.50;5009102;28;20201;-85
2023/12/29 03:28:11;;;;;;;1.50;1.40;;;;;;;10.41;56.33;94814.41;5009972;28;20233;-88
2023/12/29 03:30:37;;;;;;;1.97;1.50;;;;;;;10.32;55.73;94771.84;5006731;28;20217;-87
2023/12/29 03:33:04;;;;;;;1.70;1.60;;;;;;;10.33;55.59;94758.81;5009466;28;21007;-86
2023/12/29 03:35:31;;;;;;;1.90;1.70;;;;;;;10.27;55.22;94743.34;5008835;28;20207;-86
2023/12/29 03:38:00;;;;;;;1.50;1.40;;;;;;;10.22;55.42;94743.13;5009183;28;20215;-86
2023/12/29 03:40:26;;;;;;;1.47;1.37;;;;;;;10.23;55.09;94737.78;5009174;28;20817;-85
2023/12/29 03:42:53;;;;;;;1.67;1.37;;;;;;;10.28;55.03;94743.16;5009578;28;20195;-86
2023/12/29 03:45:19;;;;;;;1.70;1.57;;;;;;;10.28;54.91;94725.13;5008411;28;20232;-86
2023/12/29 03:47:45;;;;;;;1.40;1.30;;;;;;;10.28;54.85;94714.84;5007610;28;20242;-86
2023/12/29 03:50:12;;;;;;;2.27;2.10;;;;;;;10.29;54.87;94716.44;5008562;28;20206;-86
2023/12/29 03:52:40;;;;;;;2.60;1.60;;;;;;;10.31;54.85;94711.09;5012605;28;20213;-86
2023/12/29 03:55:07;;;;;;;1.37;1.27;;;;;;;10.34;54.20;94706.34;5012407;28;20198;-86
2023/12/29 03:57:33;;;;;;;1.40;1.30;;;;;;;10.36;54.44;94688.16;5013377;28;20238;-86
2023/12/29 04:00:00;;;;;;;4.10;1.50;;;;;;;10.37;54.14;94675.09;5012826;28;20206;-86
2023/12/29 04:02:28;;;;;;;1.80;1.70;;;;;;;10.34;53.63;94654.91;5013382;28;20206;-86
2023/12/29 04:04:55;;;;;;;1.50;1.40;;;;;;;10.28;53.53;94639.44;5011583;28;20213;-86
2023/12/29 04:07:21;;;;;;;1.73;1.50;;;;;;;10.30;53.73;94645.97;5012590;28;20595;-86
2023/12/29 04:09:50;;;;;;;1.67;1.57;;;;;;;10.28;53.46;94629.94;5012057;28;20195;-86
2023/12/29 04:12:19;;;;;;;1.77;1.50;;;;;;;10.33;53.65;94632.72;5012642;28;20285;-86
2023/12/29 04:14:46;;;;;;;1.57;1.47;;;;;;;10.30;53.67;94627.19;5011810;28;20227;-86
2023/12/29 04:17:13;;;;;;;1.77;1.30;;;;;;;10.33;53.62;94642.22;5012550;28;20215;-86
2023/12/29 04:19:40;;;;;;;1.60;1.50;;;;;;;10.39;53.79;94644.03;5011000;28;20214;-86
2023/12/29 04:22:07;;;;;;;1.47;1.37;;;;;;;10.37;53.25;94636.50;5012231;28;20233;-86
2023/12/29 04:24:32;;;;;;;2.00;1.63;;;;;;;10.36;53.71;94641.84;5011772;28;20668;-86
2023/12/29 04:27:00;;;;;;;2.63;1.73;;;;;;;10.43;53.71;94662.41;5012281;28;20223;-86
2023/12/29 04:29:26;;;;;;;1.83;1.57;;;;;;;10.42;53.86;94653.91;5011339;28;20727;-87
2023/12/29 04:31:53;;;;;;;2.40;1.67;;;;;;;10.43;53.51;94647.75;5012227;28;20210;-85
2023/12/29 04:34:19;;;;;;;1.53;1.43;;;;;;;10.38;53.75;94643.22;5012323;28;20226;-86
2023/12/29 04:36:46;;;;;;;1.90;1.60;;;;;;;10.38;53.68;94647.59;5009592;28;20199;-86
2023/12/29 04:39:12;;;;;;;1.60;1.50;;;;;;;10.34;53.64;94643.81;5011879;28;20217;-86
2023/12/29 04:41:39;;;;;;;1.50;1.40;;;;;;;10.47;53.89;94653.31;5011920;28;20211;-85
2023/12/29 04:44:09;;;;;;;2.20;1.70;;;;;;;10.50;53.94;94640.84;5011998;28;20202;-85
2023/12/29 04:46:36;;;;;;;1.60;1.50;;;;;;;10.48;53.57;94645.38;5011920;28;20193;-86
2023/12/29 04:49:02;;;;;;;1.90;1.70;;;;;;;10.50;53.63;94648.56;5011898;28;20214;-86
2023/12/29 04:51:29;;;;;;;2.10;1.57;;;;;;;10.53;53.64;94653.31;5009495;28;20203;-85
2023/12/29 04:53:55;;;;;;;1.67;1.57;;;;;;;10.61;53.90;94649.72;5012749;28;20223;-86
2023/12/29 04:56:22;;;;;;;2.33;1.60;;;;;;;10.63;54.02;94666.56;5011275;28;20203;-86
2023/12/29 04:58:52;;;;;;;1.70;1.60;;;;;;;10.60;53.87;94672.09;5011401;28;20227;-85
2023/12/29 05:01:25;;;;;;;2.63;1.50;;;;;;;10.61;54.62;94681.41;5010812;28;20278;-87
2023/12/29 05:03:51;;;;;;;1.77;1.67;;;;;;;10.65;54.22;94695.47;5010534;28;20195;-87
2023/12/29 05:06:17;;;;;;;2.13;1.50;;;;;;;10.70;54.29;94700.03;5010426;28;20206;-87
2023/12/29 05:08:44;;;;;;;2.77;1.60;;;;;;;10.73;54.23;94697.06;5009356;28;20252;-87
2023/12/29 05:11:10;;;;;;;2.10;1.67;;;;;;;10.71;54.54;94697.25;5010554;28;20202;-88
2023/12/29 05:13:45;;;;;;;1.70;1.60;;;;;;;10.71;54.80;94699.84;5010727;28;20235;-87
2023/12/29 05:16:11;;;;;;;3.33;1.70;;;;;;;10.69;54.83;94724.19;5010637;28;20202;-88
2023/12/29 05:18:39;;;;;;;1.90;1.70;;;;;;;10.70;54.81;94720.63;5010998;28;20231;-87
2023/12/29 05:21:06;;;;;;;1.70;1.60;;;;;;;10.64;55.28;94723.97;5009576;28;20210;-87
2023/12/29 05:23:47;;;;;;;2.60;1.60;;;;;;;10.68;55.02;94728.53;5009989;28;20199;-87
2023/12/29 05:26:13;;;;;;;2.33;1.70;;;;;;;10.72;55.06;94734.09;5006691;28;20211;-87
2023/12/29 05:28:42;;;;;;;2.97;1.90;;;;;;;10.71;55.24;94748.75;5051018;23;20727;-87
2023/12/29 05:31:30;;;;;;;2.50;1.80;;;;;;;10.79;55.36;94759.81;5030224;28;20710;-87
2023/12/29 05:34:00;;;;;;;2.43;1.90;;;;;;;10.77;55.44;94756.69;5014789;28;20214;-87
2023/12/29 05:36:47;;;;;;;1.93;1.60;;;;;;;10.76;55.38;94768.75;5030327;28;20572;-87
2023/12/29 05:39:15;;;;;;;2.03;1.70;;;;;;;10.79;55.60;94775.28;4999263;28;20693;-87
2023/12/29 05:42:05;;;;;;;1.70;1.60;;;;;;;10.82;55.30;94765.38;5005259;28;20661;-87
2023/12/29 05:44:37;;;;;;;2.30;1.80;;;;;;;10.83;55.40;94773.88;4992593;28;20328;-87
2023/12/29 05:47:03;;;;;;;2.77;1.93;;;;;;;10.82;55.48;94780.03;4997320;28;20627;-86
2023/12/29 05:49:31;;;;;;;1.80;1.70;;;;;;;10.86;55.18;94770.94;5007504;28;20724;-87
2023/12/29 05:52:00;;;;;;;2.10;1.60;;;;;;;10.86;55.43;94779.44;5010555;28;20195;-87
2023/12/29 05:54:27;;;;;;;2.00;1.70;;;;;;;10.83;55.57;94769.53;5009352;28;20219;-86
2023/12/29 05:56:53;;;;;;;1.87;1.77;;;;;;;10.87;55.53;94778.47;5009097;28;20241;-87
2023/12/29 06:09:49;;;;;;;;;;;;;;;;;;;;;
2023/12/29 06:28:44;;;;;;;1.80;1.50;;;;;;;10.66;55.75;94794.88;4889555;29;20310;-86
2023/12/29 06:34:37;;;;;;;2.07;1.80;;;;;;;10.58;56.10;94805.34;4952191;28;20229;-87
2023/12/29 06:37:04;;;;;;;2.60;1.80;;;;;;;10.58;56.01;94805.34;4963287;28;20243;-87
2023/12/29 06:39:30;;;;;;;3.93;1.50;;;;;;;10.63;55.90;94809.91;4966798;28;20276;-87
2023/12/29 06:48:01;;;;;;;2.37;2.17;;;;;;;10.54;55.83;94808.53;4950917;28;20231;-88
2023/12/29 06:53:34;;;;;;;4.83;3.80;;;;;;;10.56;56.16;94822.00;4961801;28;20198;-86
2023/12/29 07:03:34;;;;;;;1.83;1.70;;;;;;;10.59;56.79;94860.19;4923831;29;20221;-90
2023/12/29 07:07:06;;;;;;;;;;;;;;;;;;;;;
2023/12/29 07:16:40;;;;;;;1.63;1.40;;;;;;;10.55;58.26;94942.19;4983040;28;20277;-89
2023/12/29 07:19:36;;;;;;;1.60;1.40;;;;;;;10.55;58.50;94974.84;4988369;28;20707;-89
2023/12/29 07:36:04;;;;;;;1.70;1.57;;;;;;;10.68;61.55;95126.78;4797472;29;20241;-87
2023/12/29 07:41:56;;;;;;;;;;;;;;;;;;;;;
2023/12/29 07:54:19;;;;;;;1.93;1.30;;;;;;;10.62;64.48;95243.38;4922343;28;20211;-87
2023/12/29 07:56:46;;;;;;;2.03;1.47;;;;;;;10.66;64.50;95247.97;4985023;28;20195;-86
2023/12/29 08:02:30;;;;;;;1.87;1.40;;;;;;;10.74;65.12;95280.53;4977504;28;20952;-83
2023/12/29 08:34:47;;;;;;;2.20;2.00;;;;;;;10.97;65.18;95314.59;3143856;26;20215;-89
2023/12/29 08:37:26;;;;;;;1.60;1.50;;;;;;;10.98;64.95;95307.66;4949612;28;20244;-90
2023/12/29 08:42:49;;;;;;;2.00;1.73;;;;;;;11.00;65.06;95306.50;4930063;29;20274;-89
2023/12/29 08:45:41;;;;;;;1.87;1.77;;;;;;;11.07;64.95;95294.47;4934251;29;20212;-89
2023/12/29 08:48:43;;;;;;;1.63;1.53;;;;;;;11.08;64.83;95296.06;4930495;29;20687;-89
2023/12/29 08:51:11;;;;;;;2.70;1.60;;;;;;;11.08;65.04;95282.41;4936437;28;20204;-88
2023/12/29 08:57:30;;;;;;;1.80;1.70;;;;;;;11.13;64.67;95279.25;4991671;28;20258;-88
2023/12/29 09:00:21;;;;;;;1.53;1.43;;;;;;;11.23;64.29;95269.41;4989049;28;20227;-88
2023/12/29 09:06:24;;;;;;;1.70;1.40;;;;;;;11.23;64.04;95261.69;4958896;28;20740;-88
2023/12/29 09:09:54;;;;;;;2.00;1.80;;;;;;;11.26;64.33;95254.38;4991297;28;20317;-88
2023/12/29 09:15:49;;;;;;;1.60;1.50;;;;;;;11.35;64.17;95263.53;4881041;29;20227;-86
2023/12/29 09:28:16;;;;;;;2.40;1.73;;;;;;;11.42;64.73;95285.00;4842278;29;20271;-86
2023/12/29 09:30:43;;;;;;;1.27;1.17;;;;;;;11.45;64.33;95285.63;4914674;28;20234;-87
2023/12/29 09:36:27;;;;;;;1.40;1.30;;;;;;;11.49;64.10;95258.47;4970265;28;20501;-85
2023/12/29 09:42:39;;;;;;;1.60;1.50;;;;;;;11.43;64.39;95263.41;4954052;28;20258;-86
2023/12/29 09:45:13;;;;;;;1.67;1.40;;;;;;;11.48;64.13;95267.19;5001314;28;20206;-85
2023/12/29 09:47:55;;;;;;;1.40;1.30;;;;;;;11.58;64.02;95259.91;5010991;28;20273;-85
2023/12/29 09:50:47;;;;;;;1.60;1.30;;;;;;;11.55;64.23;95268.81;5009680;28;20557;-85
2023/12/29 09:53:20;;;;;;;1.30;1.20;;;;;;;11.59;64.26;95269.22;5010315;28;20586;-85
2023/12/29 09:55:56;;;;;;;1.63;1.40;;;;;;;11.64;64.06;95267.69;5000831;28;20628;-85
2023/12/29 10:01:29;;;;;;;2.33;1.30;;;;;;;11.71;64.08;95260.78;4940746;28;20219;-85
2023/12/29 10:04:15;;;;;;;1.50;1.30;;;;;;;11.75;64.29;95261.19;4990742;28;20190;-87
2023/12/29 10:07:11;;;;;;;;;;;;;;;;;;;;;
2023/12/29 10:09:40;;;;;;;1.23;1.13;;;;;;;11.74;64.80;95293.91;4980073;28;20210;-86
2023/12/29 10:12:28;;;;;;;1.40;1.30;;;;;;;11.72;65.34;95298.50;4990135;28;20262;-86
2023/12/29 10:15:32;;;;;;;1.13;0.97;;;;;;;11.78;65.50;95302.09;4979375;28;20216;-86
2023/12/29 10:18:08;;;;;;;1.27;1.10;;;;;;;11.75;66.12;95323.88;4986197;28;20223;-87
2023/12/29 10:21:19;;;;;;;1.53;1.00;;;;;;;11.82;66.03;95308.47;4990172;28;20207;-86
2023/12/29 10:24:46;;;;;;;0.93;0.93;;;;;;;11.96;65.93;95296.44;4989287;28;20194;-86
2023/12/29 10:27:13;;;;;;;1.20;1.10;;;;;;;11.94;66.24;95300.97;4910187;29;20305;-86
2023/12/29 10:32:50;;;;;;;1.07;0.97;;;;;;;11.84;67.00;95327.16;4987239;28;20219;-88
2023/12/29 10:35:17;;;;;;;1.30;1.20;;;;;;;11.91;67.15;95317.66;4989419;28;20229;-88
2023/12/29 10:43:23;;;;;;;1.03;0.90;;;;;;;12.03;67.13;95310.97;4928976;29;20290;-87
2023/12/29 10:45:49;;;;;;;1.40;1.10;;;;;;;12.08;67.21;95311.19;4977259;28;20206;-88
2023/12/29 10:51:52;;;;;;;1.03;1.00;;;;;;;12.10;67.39;95316.16;4917588;29;20213;-87
2023/12/29 10:54:26;;;;;;;1.00;0.90;;;;;;;12.13;66.93;95305.44;4947285;29;20742;-88
2023/12/29 11:00:16;;;;;;;1.30;1.10;;;;;;;12.14;66.61;95276.06;5208174;22;20237;-88
2023/12/29 11:02:43;;;;;;;1.30;0.80;;;;;;;12.07;66.88;95280.41;5016374;28;20258;-88
2023/12/29 11:05:11;;;;;;;1.00;1.00;;;;;;;12.03;67.17;95290.31;5027739;28;20205;-88
2023/12/29 12:03:48;;;;;;;2.13;1.40;;;;;;;12.71;64.21;95143.84;5007053;28;20238;-87
2023/12/29 12:06:39;;;;;;;1.37;1.20;;;;;;;12.87;64.06;95134.91;5008716;28;20706;-87
2023/12/29 12:10:03;;;;;;;1.53;1.40;;;;;;;12.92;63.77;95109.25;5006929;28;20226;-87
2023/12/29 12:12:59;;;;;;;1.30;1.20;;;;;;;12.79;63.95;95109.28;5006225;28;20202;-87
2023/12/29 12:15:55;;;;;;;2.90;1.40;;;;;;;12.80;63.79;95110.88;5011763;28;20223;-87
2023/12/29 12:18:37;;;;;;;1.30;1.20;;;;;;;12.78;63.87;95102.53;5011856;28;20211;-87
2023/12/29 12:21:14;;;;;;;2.40;1.13;;;;;;;12.79;63.73;95091.19;5011486;28;20613;-87
2023/12/29 12:23:58;;;;;;;1.47;1.23;;;;;;;12.79;63.79;95104.13;5018467;28;20209;-87
2023/12/29 12:26:47;;;;;;;1.17;1.07;;;;;;;12.75;63.65;95077.88;5004054;28;20438;-86
2023/12/29 12:29:36;;;;;;;2.10;1.10;;;;;;;12.76;63.51;95084.66;5010344;28;20932;-87
2023/12/29 12:35:37;;;;;;;2.20;1.40;;;;;;;12.76;62.84;95048.47;4963986;28;20207;-88
2023/12/29 12:38:27;;;;;;;1.20;1.10;;;;;;;12.90;62.67;95054.41;5010538;28;20963;-87
2023/12/29 12:41:32;;;;;;;1.60;0.90;;;;;;;12.83;62.63;95045.09;5005851;28;20202;-88
2023/12/29 12:53:56;;;;;;;1.10;1.00;;;;;;;12.85;62.40;95037.94;4981779;28;20287;-87
2023/12/29 12:56:28;;;;;;;1.43;1.10;;;;;;;12.82;62.07;95025.41;5009591;28;20325;-86
2023/12/29 12:58:59;;;;;;;1.77;1.17;;;;;;;12.86;61.85;95019.66;5011961;28;20646;-87
2023/12/29 13:07:48;;;;;;;0.90;0.90;;;;;;;12.74;61.56;95003.19;5005262;28;20230;-87
2023/12/29 13:13:18;;;;;;;;;;;;;;;;;;;;;
2023/12/29 13:15:55;;;;;;;3.00;2.70;;;;;;;12.65;61.68;95015.53;5012219;28;20937;-87
2023/12/29 13:18:55;;;;;;;1.30;1.20;;;;;;;12.70;61.97;95023.44;5029669;28;20646;-87
2023/12/29 13:21:26;;;;;;;1.63;1.10;;;;;;;12.68;61.68;95009.19;5007416;28;20238;-86
2023/12/29 13:27:15;;;;;;;0.90;0.90;;;;;;;12.56;62.48;95016.75;4997911;28;20242;-87
2023/12/29 13:36:56;;;;;;;2.03;1.00;;;;;;;12.43;62.05;95022.75;4981666;28;20711;-88
2023/12/29 13:40:14;;;;;;;1.10;1.00;;;;;;;12.47;62.35;95024.91;5010169;28;20199;-88
2023/12/29 13:42:54;;;;;;;0.93;0.90;;;;;;;12.29;62.37;95010.84;4960285;28;20219;-87
2023/12/29 13:45:23;;;;;;;1.07;0.90;;;;;;;12.31;62.61;95031.31;5006237;28;20277;-87
2023/12/29 13:48:00;;;;;;;2.30;1.07;;;;;;;12.26;62.47;95021.56;5026366;28;20308;-87
2023/12/29 13:50:30;;;;;;;1.07;1.00;;;;;;;12.31;62.08;95013.22;5021030;28;20199;-87
2023/12/29 13:53:12;;;;;;;1.03;0.80;;;;;;;12.27;62.37;95014.63;5009612;28;20207;-88
2023/12/29 13:56:21;;;;;;;1.17;1.07;;;;;;;12.28;62.45;95014.44;5008763;28;20226;-89
2023/12/29 14:12:34;;;;;;;1.00;0.90;;;;;;;12.07;60.53;94917.38;4987694;28;20211;-88
2023/12/29 14:15:32;;;;;;;1.30;1.10;;;;;;;12.02;60.82;94926.72;5006794;28;20195;-87
2023/12/29 14:18:15;;;;;;;1.17;1.07;;;;;;;12.00;60.75;94944.97;5004380;28;20225;-88
2023/12/29 14:20:55;;;;;;;1.27;1.00;;;;;;;12.03;60.84;94954.09;5007905;28;20199;-88
2023/12/29 14:23:33;;;;;;;1.17;1.07;;;;;;;12.04;60.91;94951.31;5007058;28;20265;-87
2023/12/29 14:26:23;;;;;;;2.47;2.27;;;;;;;12.02;60.96;94953.31;5006696;28;20198;-89
2023/12/29 14:29:22;;;;;;;2.00;0.83;;;;;;;12.10;60.86;94975.53;5006791;28;20210;-87
2023/12/29 14:32:13;;;;;;;1.10;1.00;;;;;;;12.06;61.27;94964.81;5008095;28;20195;-87
2023/12/29 14:34:40;;;;;;;2.03;0.90;;;;;;;12.06;61.32;94977.72;5006901;28;20191;-88
2023/12/29 14:37:23;;;;;;;0.93;0.90;;;;;;;12.05;61.78;94993.41;5005391;28;20795;-88
2023/12/29 14:39:56;;;;;;;1.27;0.90;;;;;;;12.04;61.44;94982.28;5008161;28;20199;-87
2023/12/29 14:42:54;;;;;;;1.00;0.90;;;;;;;12.05;61.67;94991.63;5008330;28;20199;-88
2023/12/29 14:45:31;;;;;;;1.23;0.90;;;;;;;11.96;62.08;95003.13;5008248;28;20218;-89
2023/12/29 14:53:38;;;;;;;1.00;0.90;;;;;;;11.84;62.23;95024.56;5008267;28;20206;-87
2023/12/29 14:56:08;;;;;;;1.20;1.10;;;;;;;11.82;62.59;95036.84;5007849;28;20314;-89
2023/12/29 14:58:37;;;;;;;1.03;0.87;;;;;;;11.77;62.73;95038.22;5008628;28;20329;-88
2023/12/29 15:01:12;;;;;;;1.73;0.93;;;;;;;11.81;63.05;95046.38;5008179;28;20214;-88
2023/12/29 15:03:38;;;;;;;0.93;0.93;;;;;;;11.84;62.71;95040.03;4988716;28;20233;-88
2023/12/29 15:06:07;;;;;;;2.47;2.20;;;;;;;11.91;62.61;95051.16;5005399;28;20935;-89
2023/12/29 15:08:35;;;;;;;1.23;1.13;;;;;;;11.84;62.53;95051.16;5008131;28;20817;-87
2023/12/29 15:11:15;;;;;;;1.17;1.00;;;;;;;11.82;62.84;95060.84;5008118;28;20198;-87
2023/12/29 15:13:42;;;;;;;1.20;1.10;;;;;;;11.82;62.79;95066.00;5008279;28;20198;-88
2023/12/29 15:16:14;;;;;;;1.20;1.10;;;;;;;11.90;62.55;95052.16;5008460;28;20703;-88
2023/12/29 15:18:54;;;;;;;1.40;1.30;;;;;;;11.89;62.98;95056.50;5009695;28;20587;-88
2023/12/29 15:21:21;;;;;;;1.17;1.00;;;;;;;11.83;62.88;95041.81;5006950;28;20616;-87
2023/12/29 15:26:39;;;;;;;1.10;1.00;;;;;;;11.83;62.77;95053.91;5007111;28;20322;-88
2023/12/29 15:29:06;;;;;;;1.23;1.10;;;;;;;11.86;62.66;95056.09;5008715;28;20314;-88
2023/12/29 15:31:34;;;;;;;1.40;1.30;;;;;;;11.86;62.78;95048.38;5007801;28;20643;-87
2023/12/29 15:34:15;;;;;;;1.03;0.93;;;;;;;11.94;62.47;95037.84;5008119;28;20203;-88
2023/12/29 15:36:42;;;;;;;1.30;1.20;;;;;;;11.93;62.28;95036.28;5004876;28;20314;-88
2023/12/29 15:39:08;;;;;;;1.20;1.00;;;;;;;11.87;62.51;95037.84;5006260;28;20253;-88
2023/12/29 15:41:36;;;;;;;1.00;0.90;;;;;;;11.85;62.28;95047.56;5008012;28;20648;-88
2023/12/29 15:44:03;;;;;;;2.80;2.60;;;;;;;11.88;62.45;95046.38;5007926;28;20257;-87
2023/12/29 15:46:43;;;;;;;1.07;0.97;;;;;;;11.84;62.43;95043.41;5007737;28;20191;-88
2023/12/29 15:49:11;;;;;;;2.23;1.20;;;;;;;11.82;62.36;95040.22;5012336;28;20313;-88
2023/12/29 15:51:38;;;;;;;0.90;0.90;;;;;;;11.83;62.21;95036.66;5011834;28;20282;-88
2023/12/29 15:56:45;;;;;;;2.40;1.00;;;;;;;11.88;61.94;95020.59;5007806;28;20307;-87
2023/12/29 15:59:11;;;;;;;1.10;1.00;;;;;;;11.94;62.03;95015.41;5007838;28;20310;-87
2023/12/29 16:01:38;;;;;;;4.03;1.10;;;;;;;11.96;61.74;95007.47;5011982;28;20217;-88
2023/12/29 16:04:07;;;;;;;1.23;1.13;;;;;;;11.97;61.16;94998.75;5011769;28;20198;-88
2023/12/29 16:06:45;;;;;;;1.23;1.13;;;;;;;11.93;61.72;95002.75;5012154;28;20206;-89
2023/12/29 16:09:19;;;;;;;1.97;1.20;;;;;;;11.85;61.47;95003.72;5009017;28;20219;-88
2023/12/29 16:11:49;;;;;;;2.07;1.40;;;;;;;11.82;62.31;95031.69;5011671;28;20205;-89
2023/12/29 16:14:28;;;;;;;2.27;1.13;;;;;;;11.84;61.66;94999.56;5010639;28;20195;-89
2023/12/29 16:16:54;;;;;;;1.33;1.10;;;;;;;11.81;61.46;94988.84;5011574;28;20265;-89
2023/12/29 16:19:20;;;;;;;1.40;1.13;;;;;;;11.75;61.30;94990.38;5011491;28;20285;-89
2023/12/29 16:22:05;;;;;;;1.30;1.20;;;;;;;11.80;61.38;94982.88;5011476;28;20708;-88
2023/12/29 16:24:31;;;;;;;1.53;1.20;;;;;;;11.82;61.13;94983.47;4991585;28;20673;-89
2023/12/29 16:26:58;;;;;;;1.40;1.30;;;;;;;11.80;61.12;94980.31;5007716;28;20213;-87
2023/12/29 16:29:30;;;;;;;1.30;1.20;;;;;;;11.76;60.99;94979.91;4990906;28;20364;-88
2023/12/29 16:32:09;;;;;;;1.33;1.23;;;;;;;11.80;60.92;94980.31;5008286;28;20264;-88
2023/12/29 16:34:39;;;;;;;2.30;1.40;;;;;;;11.85;60.98;94972.78;4991755;28;20800;-89
2023/12/29 16:37:27;;;;;;;1.93;1.47;;;;;;;11.91;60.61;94961.66;4999175;28;20607;-88
2023/12/29 16:39:53;;;;;;;2.20;1.70;;;;;;;11.94;60.72;94963.81;5010430;28;20207;-89
2023/12/29 16:42:23;;;;;;;2.00;1.43;;;;;;;11.92;60.44;94952.94;5009465;28;20282;-89